KLOU

Details ICAO KLOU (LOU)
Name BOWMAN FLD
Region United States
Timezone America/New_York (UTC-5.0)
Plans Departing 52
Arriving 28
Stats Elevation 546 ft / 166 m (AMSL)
Location 38.227933° -85.663839°
Runways 2
Magnetic Variation 4.872° W
Sunrise 2017-12-14 12:53:01 UTC / 2017-12-14 07:53:01 Local
Sunset 2017-12-14 22:24:40 UTC / 2017-12-14 17:24:40 Local
Advertisement - Login to hide

Runways

ID Width Length Bearing (true) Bearing (mag) Surface Threshold Offset Overrun Length
06 75 ft / 23 m 4,352 ft / 1,327 m 59.50° 64.37° Asphalt 847 ft / 258 m 0 ft / 0 m
14 80 ft / 24 m 3,581 ft / 1,092 m 143.69° 148.56° Asphalt 206 ft / 63 m 0 ft / 0 m
24 75 ft / 23 m 4,352 ft / 1,327 m 239.51° 244.38° Asphalt 310 ft / 94 m 0 ft / 0 m
32 80 ft / 24 m 3,581 ft / 1,092 m 323.70° 328.57° Asphalt 341 ft / 104 m 0 ft / 0 m

Map

Weather


0- 5 10 15 20 25 30 35+ Temperature / ° C

Clouds and Precipitation
Forecast for 2017-12-14 18:00 UTC. Updated 2 hours ago

Ground ~20,000 ft ~40,000 ft Winds

METAR

KLOU 141853Z 30007KT 10SM FEW036 02/M08 A3003 RMK AO2 SLP174 T00171078

TAF

Not found

Frequencies

Unicom 119.50 MHz CTAF
Clearance 118.90 MHz CLNC DEL
Tower 119.50 MHz TWR
Approach 132.07 MHz LOUISVILLE APP/DEP
Unicom 122.95 MHz UNICOM
Ground 121.80 MHz GND
Approach 123.67 MHz LOUISVILLE APP/DEP
Warning: Do not use this data for real-world aviation or navigation. No guarantee of current accuracy is given.